sensor_id;sensor_type;location;lat;lon;timestamp;P1;durP1;ratioP1;P2;durP2;ratioP2
5475;SDS011;2760;50.000;9.194;2022-12-18T00:02:17;55.97;;;29.27;;
5475;SDS011;2760;50.000;9.194;2022-12-18T00:04:44;61.23;;;27.03;;
5475;SDS011;2760;50.000;9.194;2022-12-18T00:07:13;52.77;;;28.50;;
5475;SDS011;2760;50.000;9.194;2022-12-18T00:09:41;62.67;;;27.53;;
5475;SDS011;2760;50.000;9.194;2022-12-18T00:12:08;38.60;;;21.47;;
5475;SDS011;2760;50.000;9.194;2022-12-18T00:14:35;46.30;;;19.67;;
5475;SDS011;2760;50.000;9.194;2022-12-18T00:17:02;44.03;;;22.10;;
5475;SDS011;2760;50.000;9.194;2022-12-18T00:19:29;53.93;;;23.60;;
5475;SDS011;2760;50.000;9.194;2022-12-18T00:21:57;59.83;;;26.07;;
5475;SDS011;2760;50.000;9.194;2022-12-18T00:24:26;60.30;;;27.20;;
5475;SDS011;2760;50.000;9.194;2022-12-18T00:26:53;48.03;;;24.47;;
5475;SDS011;2760;50.000;9.194;2022-12-18T00:29:20;61.07;;;27.40;;
5475;SDS011;2760;50.000;9.194;2022-12-18T00:31:47;75.10;;;26.90;;
5475;SDS011;2760;50.000;9.194;2022-12-18T00:34:14;58.37;;;28.07;;
5475;SDS011;2760;50.000;9.194;2022-12-18T00:36:41;67.90;;;26.47;;
5475;SDS011;2760;50.000;9.194;2022-12-18T00:39:09;55.00;;;24.80;;
5475;SDS011;2760;50.000;9.194;2022-12-18T00:41:39;47.10;;;24.10;;
5475;SDS011;2760;50.000;9.194;2022-12-18T00:44:24;57.27;;;24.37;;
5475;SDS011;2760;50.000;9.194;2022-12-18T00:46:51;47.57;;;24.13;;
5475;SDS011;2760;50.000;9.194;2022-12-18T00:49:18;51.30;;;21.93;;
5475;SDS011;2760;50.000;9.194;2022-12-18T00:51:51;49.97;;;25.63;;
5475;SDS011;2760;50.000;9.194;2022-12-18T00:54:21;61.17;;;27.90;;
5475;SDS011;2760;50.000;9.194;2022-12-18T00:56:50;58.43;;;25.40;;
5475;SDS011;2760;50.000;9.194;2022-12-18T00:59:18;47.70;;;25.37;;
5475;SDS011;2760;50.000;9.194;2022-12-18T01:01:45;48.30;;;25.30;;
5475;SDS011;2760;50.000;9.194;2022-12-18T01:04:13;56.70;;;26.23;;
5475;SDS011;2760;50.000;9.194;2022-12-18T01:06:44;69.33;;;27.90;;
5475;SDS011;2760;50.000;9.194;2022-12-18T01:09:11;56.33;;;25.47;;
5475;SDS011;2760;50.000;9.194;2022-12-18T01:11:39;60.97;;;26.53;;
5475;SDS011;2760;50.000;9.194;2022-12-18T01:14:07;57.57;;;25.60;;
5475;SDS011;2760;50.000;9.194;2022-12-18T01:16:36;51.13;;;24.90;;
5475;SDS011;2760;50.000;9.194;2022-12-18T01:19:03;52.70;;;23.53;;
5475;SDS011;2760;50.000;9.194;2022-12-18T01:21:31;61.63;;;26.17;;
5475;SDS011;2760;50.000;9.194;2022-12-18T01:24:02;49.63;;;22.30;;
5475;SDS011;2760;50.000;9.194;2022-12-18T01:26:29;53.70;;;24.30;;
5475;SDS011;2760;50.000;9.194;2022-12-18T01:28:57;54.23;;;24.13;;
5475;SDS011;2760;50.000;9.194;2022-12-18T01:31:27;46.80;;;22.57;;
5475;SDS011;2760;50.000;9.194;2022-12-18T01:33:56;48.00;;;22.60;;
5475;SDS011;2760;50.000;9.194;2022-12-18T01:36:26;43.07;;;20.37;;
5475;SDS011;2760;50.000;9.194;2022-12-18T01:38:54;39.87;;;19.63;;
5475;SDS011;2760;50.000;9.194;2022-12-18T01:41:23;51.30;;;22.30;;
5475;SDS011;2760;50.000;9.194;2022-12-18T01:47:15;44.70;;;20.93;;
5475;SDS011;2760;50.000;9.194;2022-12-18T01:49:44;48.10;;;22.30;;
5475;SDS011;2760;50.000;9.194;2022-12-18T01:52:12;48.93;;;22.00;;
5475;SDS011;2760;50.000;9.194;2022-12-18T01:54:40;40.43;;;20.77;;
5475;SDS011;2760;50.000;9.194;2022-12-18T01:57:07;61.43;;;23.27;;
5475;SDS011;2760;50.000;9.194;2022-12-18T01:59:34;46.57;;;19.93;;
5475;SDS011;2760;50.000;9.194;2022-12-18T02:02:03;43.83;;;20.60;;
5475;SDS011;2760;50.000;9.194;2022-12-18T02:04:33;51.23;;;23.13;;
5475;SDS011;2760;50.000;9.194;2022-12-18T02:07:04;45.33;;;20.67;;
5475;SDS011;2760;50.000;9.194;2022-12-18T02:09:38;43.23;;;21.30;;
5475;SDS011;2760;50.000;9.194;2022-12-18T02:12:13;34.70;;;17.90;;
5475;SDS011;2760;50.000;9.194;2022-12-18T02:14:46;37.67;;;18.83;;
5475;SDS011;2760;50.000;9.194;2022-12-18T02:17:19;39.33;;;19.03;;
5475;SDS011;2760;50.000;9.194;2022-12-18T02:19:58;37.17;;;16.33;;
5475;SDS011;2760;50.000;9.194;2022-12-18T02:22:39;32.13;;;15.53;;
5475;SDS011;2760;50.000;9.194;2022-12-18T02:25:15;30.13;;;14.97;;
5475;SDS011;2760;50.000;9.194;2022-12-18T02:27:54;32.50;;;15.50;;
5475;SDS011;2760;50.000;9.194;2022-12-18T02:30:26;31.27;;;15.40;;
5475;SDS011;2760;50.000;9.194;2022-12-18T02:32:58;41.13;;;16.87;;
5475;SDS011;2760;50.000;9.194;2022-12-18T02:35:29;36.77;;;16.87;;
5475;SDS011;2760;50.000;9.194;2022-12-18T02:37:59;32.17;;;16.80;;
5475;SDS011;2760;50.000;9.194;2022-12-18T02:40:29;38.07;;;16.97;;
5475;SDS011;2760;50.000;9.194;2022-12-18T02:43:06;31.50;;;14.33;;
5475;SDS011;2760;50.000;9.194;2022-12-18T02:45:34;32.80;;;15.30;;
5475;SDS011;2760;50.000;9.194;2022-12-18T02:48:02;33.53;;;16.00;;
5475;SDS011;2760;50.000;9.194;2022-12-18T02:50:34;32.63;;;14.93;;
5475;SDS011;2760;50.000;9.194;2022-12-18T02:53:13;26.33;;;13.70;;
5475;SDS011;2760;50.000;9.194;2022-12-18T02:58:35;29.70;;;14.33;;
5475;SDS011;2760;50.000;9.194;2022-12-18T03:01:19;28.63;;;15.17;;
5475;SDS011;2760;50.000;9.194;2022-12-18T03:03:51;30.03;;;14.50;;
5475;SDS011;2760;50.000;9.194;2022-12-18T03:06:26;28.07;;;14.97;;
5475;SDS011;2760;50.000;9.194;2022-12-18T03:08:58;27.00;;;15.10;;
5475;SDS011;2760;50.000;9.194;2022-12-18T03:11:28;28.03;;;14.50;;
5475;SDS011;2760;50.000;9.194;2022-12-18T03:14:18;31.20;;;15.70;;
5475;SDS011;2760;50.000;9.194;2022-12-18T03:16:54;28.10;;;14.87;;
5475;SDS011;2760;50.000;9.194;2022-12-18T03:19:29;31.17;;;13.73;;
5475;SDS011;2760;50.000;9.194;2022-12-18T03:22:02;39.67;;;16.33;;
5475;SDS011;2760;50.000;9.194;2022-12-18T03:24:41;35.20;;;16.40;;
5475;SDS011;2760;50.000;9.194;2022-12-18T03:27:11;31.40;;;16.80;;
5475;SDS011;2760;50.000;9.194;2022-12-18T03:29:43;39.43;;;16.30;;
5475;SDS011;2760;50.000;9.194;2022-12-18T03:32:19;29.27;;;15.07;;
5475;SDS011;2760;50.000;9.194;2022-12-18T03:34:52;35.60;;;17.67;;
5475;SDS011;2760;50.000;9.194;2022-12-18T03:37:28;34.17;;;18.30;;
5475;SDS011;2760;50.000;9.194;2022-12-18T03:39:58;32.77;;;16.23;;
5475;SDS011;2760;50.000;9.194;2022-12-18T03:42:27;36.70;;;16.30;;
5475;SDS011;2760;50.000;9.194;2022-12-18T03:45:08;41.33;;;17.97;;
5475;SDS011;2760;50.000;9.194;2022-12-18T03:47:39;33.03;;;17.97;;
5475;SDS011;2760;50.000;9.194;2022-12-18T03:50:11;33.83;;;17.23;;
5475;SDS011;2760;50.000;9.194;2022-12-18T03:52:48;40.87;;;15.27;;
5475;SDS011;2760;50.000;9.194;2022-12-18T03:55:20;27.60;;;15.30;;
5475;SDS011;2760;50.000;9.194;2022-12-18T03:57:56;40.37;;;16.77;;
5475;SDS011;2760;50.000;9.194;2022-12-18T04:00:31;27.33;;;16.20;;
5475;SDS011;2760;50.000;9.194;2022-12-18T04:03:05;33.13;;;16.17;;
5475;SDS011;2760;50.000;9.194;2022-12-18T04:05:43;31.90;;;16.47;;
5475;SDS011;2760;50.000;9.194;2022-12-18T04:08:18;34.33;;;17.83;;
5475;SDS011;2760;50.000;9.194;2022-12-18T04:10:56;38.40;;;16.90;;
5475;SDS011;2760;50.000;9.194;2022-12-18T04:13:27;32.17;;;15.90;;
5475;SDS011;2760;50.000;9.194;2022-12-18T04:16:01;35.60;;;15.83;;
5475;SDS011;2760;50.000;9.194;2022-12-18T04:18:28;45.53;;;19.20;;
5475;SDS011;2760;50.000;9.194;2022-12-18T04:20:55;36.30;;;16.60;;
5475;SDS011;2760;50.000;9.194;2022-12-18T04:23:23;33.33;;;16.07;;
5475;SDS011;2760;50.000;9.194;2022-12-18T04:25:54;33.40;;;15.40;;
5475;SDS011;2760;50.000;9.194;2022-12-18T04:28:35;31.30;;;15.77;;
5475;SDS011;2760;50.000;9.194;2022-12-18T04:31:04;37.23;;;17.97;;
5475;SDS011;2760;50.000;9.194;2022-12-18T04:33:32;39.60;;;17.60;;
5475;SDS011;2760;50.000;9.194;2022-12-18T04:36:00;30.53;;;16.33;;
5475;SDS011;2760;50.000;9.194;2022-12-18T04:38:27;25.80;;;16.50;;
5475;SDS011;2760;50.000;9.194;2022-12-18T04:41:03;34.57;;;16.57;;
5475;SDS011;2760;50.000;9.194;2022-12-18T04:43:30;35.43;;;14.57;;
5475;SDS011;2760;50.000;9.194;2022-12-18T04:46:01;45.73;;;16.67;;
5475;SDS011;2760;50.000;9.194;2022-12-18T04:48:30;33.27;;;15.43;;
5475;SDS011;2760;50.000;9.194;2022-12-18T04:50:59;42.23;;;18.60;;
5475;SDS011;2760;50.000;9.194;2022-12-18T04:53:26;37.97;;;16.63;;
5475;SDS011;2760;50.000;9.194;2022-12-18T04:56:02;37.03;;;16.40;;
5475;SDS011;2760;50.000;9.194;2022-12-18T04:58:30;33.60;;;16.60;;
5475;SDS011;2760;50.000;9.194;2022-12-18T05:00:58;30.87;;;15.87;;
5475;SDS011;2760;50.000;9.194;2022-12-18T05:03:26;41.93;;;16.83;;
5475;SDS011;2760;50.000;9.194;2022-12-18T05:05:53;36.80;;;18.40;;
5475;SDS011;2760;50.000;9.194;2022-12-18T05:08:20;34.20;;;17.27;;
5475;SDS011;2760;50.000;9.194;2022-12-18T05:10:47;45.27;;;18.73;;
5475;SDS011;2760;50.000;9.194;2022-12-18T05:13:15;31.40;;;15.97;;
5475;SDS011;2760;50.000;9.194;2022-12-18T05:15:42;36.20;;;16.30;;
5475;SDS011;2760;50.000;9.194;2022-12-18T05:18:17;37.40;;;18.00;;
5475;SDS011;2760;50.000;9.194;2022-12-18T05:20:45;43.93;;;17.80;;
5475;SDS011;2760;50.000;9.194;2022-12-18T05:23:12;38.60;;;18.40;;
5475;SDS011;2760;50.000;9.194;2022-12-18T05:25:39;40.73;;;19.03;;
5475;SDS011;2760;50.000;9.194;2022-12-18T05:28:06;44.40;;;19.40;;
5475;SDS011;2760;50.000;9.194;2022-12-18T05:30:34;44.63;;;20.60;;
5475;SDS011;2760;50.000;9.194;2022-12-18T05:33:01;44.00;;;19.70;;
5475;SDS011;2760;50.000;9.194;2022-12-18T05:35:28;43.20;;;20.90;;
5475;SDS011;2760;50.000;9.194;2022-12-18T05:37:56;43.77;;;21.47;;
5475;SDS011;2760;50.000;9.194;2022-12-18T05:40:23;43.47;;;21.90;;
5475;SDS011;2760;50.000;9.194;2022-12-18T05:42:50;45.67;;;22.00;;
5475;SDS011;2760;50.000;9.194;2022-12-18T05:45:17;40.87;;;18.87;;
5475;SDS011;2760;50.000;9.194;2022-12-18T05:47:45;38.90;;;18.87;;
5475;SDS011;2760;50.000;9.194;2022-12-18T05:50:12;40.87;;;18.70;;
5475;SDS011;2760;50.000;9.194;2022-12-18T05:52:39;40.77;;;18.80;;
5475;SDS011;2760;50.000;9.194;2022-12-18T05:55:08;41.00;;;20.70;;
5475;SDS011;2760;50.000;9.194;2022-12-18T05:57:35;37.23;;;19.20;;
5475;SDS011;2760;50.000;9.194;2022-12-18T06:00:02;47.97;;;20.37;;
5475;SDS011;2760;50.000;9.194;2022-12-18T06:02:37;41.43;;;17.27;;
5475;SDS011;2760;50.000;9.194;2022-12-18T06:05:10;43.50;;;19.60;;
5475;SDS011;2760;50.000;9.194;2022-12-18T06:07:37;36.90;;;20.47;;
5475;SDS011;2760;50.000;9.194;2022-12-18T06:10:05;42.07;;;19.73;;
5475;SDS011;2760;50.000;9.194;2022-12-18T06:12:33;43.57;;;19.70;;
5475;SDS011;2760;50.000;9.194;2022-12-18T06:15:00;42.17;;;19.97;;
5475;SDS011;2760;50.000;9.194;2022-12-18T06:17:28;50.27;;;19.43;;
5475;SDS011;2760;50.000;9.194;2022-12-18T06:19:56;42.73;;;18.67;;
5475;SDS011;2760;50.000;9.194;2022-12-18T06:22:23;47.47;;;22.30;;
5475;SDS011;2760;50.000;9.194;2022-12-18T06:24:51;61.90;;;22.07;;
5475;SDS011;2760;50.000;9.194;2022-12-18T06:27:19;53.93;;;22.40;;
5475;SDS011;2760;50.000;9.194;2022-12-18T06:29:47;41.73;;;21.97;;
5475;SDS011;2760;50.000;9.194;2022-12-18T06:32:14;40.00;;;21.20;;
5475;SDS011;2760;50.000;9.194;2022-12-18T06:34:41;52.53;;;21.87;;
5475;SDS011;2760;50.000;9.194;2022-12-18T06:37:09;40.83;;;19.90;;
5475;SDS011;2760;50.000;9.194;2022-12-18T06:39:36;43.57;;;21.90;;
5475;SDS011;2760;50.000;9.194;2022-12-18T06:42:03;49.20;;;20.40;;
5475;SDS011;2760;50.000;9.194;2022-12-18T06:44:31;44.20;;;18.57;;
5475;SDS011;2760;50.000;9.194;2022-12-18T06:47:00;44.47;;;20.00;;
5475;SDS011;2760;50.000;9.194;2022-12-18T06:49:27;43.00;;;22.30;;
5475;SDS011;2760;50.000;9.194;2022-12-18T06:51:54;41.27;;;19.77;;
5475;SDS011;2760;50.000;9.194;2022-12-18T06:54:22;38.70;;;18.40;;
5475;SDS011;2760;50.000;9.194;2022-12-18T06:56:51;43.67;;;20.47;;
5475;SDS011;2760;50.000;9.194;2022-12-18T06:59:18;36.60;;;17.10;;
5475;SDS011;2760;50.000;9.194;2022-12-18T07:01:46;46.13;;;20.63;;
5475;SDS011;2760;50.000;9.194;2022-12-18T07:04:15;41.20;;;19.20;;
5475;SDS011;2760;50.000;9.194;2022-12-18T07:06:42;34.10;;;19.70;;
5475;SDS011;2760;50.000;9.194;2022-12-18T07:09:10;40.53;;;15.73;;
5475;SDS011;2760;50.000;9.194;2022-12-18T07:11:37;40.70;;;18.27;;
5475;SDS011;2760;50.000;9.194;2022-12-18T07:14:04;40.27;;;18.07;;
5475;SDS011;2760;50.000;9.194;2022-12-18T07:16:30;36.60;;;17.57;;
5475;SDS011;2760;50.000;9.194;2022-12-18T07:18:57;38.77;;;19.07;;
5475;SDS011;2760;50.000;9.194;2022-12-18T07:21:26;45.23;;;19.23;;
5475;SDS011;2760;50.000;9.194;2022-12-18T07:23:53;40.33;;;19.03;;
5475;SDS011;2760;50.000;9.194;2022-12-18T07:26:20;41.67;;;19.10;;
5475;SDS011;2760;50.000;9.194;2022-12-18T07:28:54;38.37;;;17.33;;
5475;SDS011;2760;50.000;9.194;2022-12-18T07:31:22;37.43;;;18.53;;
5475;SDS011;2760;50.000;9.194;2022-12-18T07:33:50;41.57;;;19.70;;
5475;SDS011;2760;50.000;9.194;2022-12-18T07:36:17;52.30;;;21.03;;
5475;SDS011;2760;50.000;9.194;2022-12-18T07:38:47;38.87;;;17.60;;
5475;SDS011;2760;50.000;9.194;2022-12-18T07:41:16;25.63;;;13.47;;
5475;SDS011;2760;50.000;9.194;2022-12-18T07:43:44;42.03;;;18.67;;
5475;SDS011;2760;50.000;9.194;2022-12-18T07:46:12;42.77;;;19.80;;
5475;SDS011;2760;50.000;9.194;2022-12-18T07:48:40;36.03;;;19.10;;
5475;SDS011;2760;50.000;9.194;2022-12-18T07:51:08;31.97;;;15.77;;
5475;SDS011;2760;50.000;9.194;2022-12-18T07:53:35;42.00;;;19.70;;
5475;SDS011;2760;50.000;9.194;2022-12-18T07:56:05;47.90;;;21.60;;
5475;SDS011;2760;50.000;9.194;2022-12-18T07:58:35;37.80;;;20.97;;
5475;SDS011;2760;50.000;9.194;2022-12-18T08:01:03;39.50;;;19.47;;
5475;SDS011;2760;50.000;9.194;2022-12-18T08:03:30;38.83;;;17.23;;
5475;SDS011;2760;50.000;9.194;2022-12-18T08:05:58;39.37;;;17.97;;
5475;SDS011;2760;50.000;9.194;2022-12-18T08:08:26;37.43;;;18.43;;
5475;SDS011;2760;50.000;9.194;2022-12-18T08:10:53;42.70;;;20.47;;
5475;SDS011;2760;50.000;9.194;2022-12-18T08:13:22;27.00;;;15.00;;
5475;SDS011;2760;50.000;9.194;2022-12-18T08:15:55;35.10;;;18.00;;
5475;SDS011;2760;50.000;9.194;2022-12-18T08:18:23;45.13;;;20.63;;
5475;SDS011;2760;50.000;9.194;2022-12-18T08:20:50;40.57;;;18.33;;
5475;SDS011;2760;50.000;9.194;2022-12-18T08:23:17;52.70;;;20.27;;
5475;SDS011;2760;50.000;9.194;2022-12-18T08:25:46;43.93;;;20.80;;
5475;SDS011;2760;50.000;9.194;2022-12-18T08:28:14;38.20;;;18.53;;
5475;SDS011;2760;50.000;9.194;2022-12-18T08:30:42;37.17;;;19.77;;
5475;SDS011;2760;50.000;9.194;2022-12-18T08:33:09;43.30;;;20.33;;
5475;SDS011;2760;50.000;9.194;2022-12-18T08:35:36;38.30;;;19.17;;
5475;SDS011;2760;50.000;9.194;2022-12-18T08:38:03;40.83;;;20.77;;
5475;SDS011;2760;50.000;9.194;2022-12-18T08:40:30;34.50;;;19.57;;
5475;SDS011;2760;50.000;9.194;2022-12-18T08:42:58;40.23;;;20.70;;
5475;SDS011;2760;50.000;9.194;2022-12-18T08:45:44;31.97;;;16.77;;
5475;SDS011;2760;50.000;9.194;2022-12-18T08:48:11;39.67;;;18.90;;
5475;SDS011;2760;50.000;9.194;2022-12-18T08:50:38;38.93;;;18.30;;
5475;SDS011;2760;50.000;9.194;2022-12-18T08:53:05;41.07;;;18.63;;
5475;SDS011;2760;50.000;9.194;2022-12-18T08:55:32;40.00;;;17.63;;
5475;SDS011;2760;50.000;9.194;2022-12-18T08:58:00;41.57;;;19.20;;
5475;SDS011;2760;50.000;9.194;2022-12-18T09:00:26;37.97;;;18.30;;
5475;SDS011;2760;50.000;9.194;2022-12-18T09:02:55;42.90;;;20.73;;
5475;SDS011;2760;50.000;9.194;2022-12-18T09:05:22;46.87;;;19.67;;
5475;SDS011;2760;50.000;9.194;2022-12-18T09:07:49;40.37;;;20.40;;
5475;SDS011;2760;50.000;9.194;2022-12-18T09:10:16;46.97;;;21.27;;
5475;SDS011;2760;50.000;9.194;2022-12-18T09:12:43;37.73;;;18.57;;
5475;SDS011;2760;50.000;9.194;2022-12-18T09:15:10;38.37;;;19.40;;
5475;SDS011;2760;50.000;9.194;2022-12-18T09:17:37;40.23;;;18.13;;
5475;SDS011;2760;50.000;9.194;2022-12-18T09:20:07;40.83;;;16.77;;
5475;SDS011;2760;50.000;9.194;2022-12-18T09:22:36;33.43;;;17.30;;
5475;SDS011;2760;50.000;9.194;2022-12-18T09:25:03;34.17;;;16.83;;
5475;SDS011;2760;50.000;9.194;2022-12-18T09:27:33;40.87;;;18.73;;
5475;SDS011;2760;50.000;9.194;2022-12-18T09:30:00;42.10;;;19.50;;
5475;SDS011;2760;50.000;9.194;2022-12-18T09:32:27;31.43;;;17.73;;
5475;SDS011;2760;50.000;9.194;2022-12-18T09:34:56;37.67;;;18.23;;
5475;SDS011;2760;50.000;9.194;2022-12-18T09:37:24;42.83;;;18.57;;
5475;SDS011;2760;50.000;9.194;2022-12-18T09:39:51;48.37;;;20.43;;
5475;SDS011;2760;50.000;9.194;2022-12-18T09:42:19;46.40;;;21.37;;
5475;SDS011;2760;50.000;9.194;2022-12-18T09:44:48;35.80;;;16.10;;
5475;SDS011;2760;50.000;9.194;2022-12-18T09:47:18;45.73;;;18.47;;
5475;SDS011;2760;50.000;9.194;2022-12-18T09:49:52;45.80;;;19.47;;
5475;SDS011;2760;50.000;9.194;2022-12-18T09:52:25;46.03;;;19.10;;
5475;SDS011;2760;50.000;9.194;2022-12-18T09:54:57;41.90;;;18.67;;
5475;SDS011;2760;50.000;9.194;2022-12-18T09:57:28;46.23;;;15.67;;
5475;SDS011;2760;50.000;9.194;2022-12-18T09:59:58;51.07;;;19.00;;
5475;SDS011;2760;50.000;9.194;2022-12-18T10:02:36;36.40;;;18.10;;
5475;SDS011;2760;50.000;9.194;2022-12-18T10:05:05;46.37;;;18.93;;
5475;SDS011;2760;50.000;9.194;2022-12-18T10:07:42;48.30;;;22.23;;
5475;SDS011;2760;50.000;9.194;2022-12-18T10:10:21;44.70;;;19.53;;
5475;SDS011;2760;50.000;9.194;2022-12-18T10:12:55;39.33;;;18.10;;
5475;SDS011;2760;50.000;9.194;2022-12-18T10:15:34;43.90;;;18.87;;
5475;SDS011;2760;50.000;9.194;2022-12-18T10:18:07;40.70;;;17.50;;
5475;SDS011;2760;50.000;9.194;2022-12-18T10:20:46;49.03;;;18.27;;
5475;SDS011;2760;50.000;9.194;2022-12-18T10:23:20;23.70;;;10.67;;
5475;SDS011;2760;50.000;9.194;2022-12-18T10:25:53;57.47;;;23.13;;
5475;SDS011;2760;50.000;9.194;2022-12-18T10:28:24;48.33;;;20.50;;
5475;SDS011;2760;50.000;9.194;2022-12-18T10:30:52;43.37;;;17.77;;
5475;SDS011;2760;50.000;9.194;2022-12-18T10:33:20;38.33;;;15.70;;
5475;SDS011;2760;50.000;9.194;2022-12-18T10:35:49;43.20;;;17.00;;
5475;SDS011;2760;50.000;9.194;2022-12-18T10:38:22;54.97;;;20.30;;
5475;SDS011;2760;50.000;9.194;2022-12-18T10:40:52;42.17;;;20.30;;
5475;SDS011;2760;50.000;9.194;2022-12-18T10:43:21;41.00;;;18.07;;
5475;SDS011;2760;50.000;9.194;2022-12-18T10:46:01;41.70;;;18.27;;
5475;SDS011;2760;50.000;9.194;2022-12-18T10:48:32;23.60;;;12.37;;
5475;SDS011;2760;50.000;9.194;2022-12-18T10:51:01;31.90;;;14.60;;
5475;SDS011;2760;50.000;9.194;2022-12-18T10:53:32;44.10;;;18.10;;
5475;SDS011;2760;50.000;9.194;2022-12-18T10:56:02;44.93;;;21.43;;
5475;SDS011;2760;50.000;9.194;2022-12-18T10:58:31;55.40;;;20.97;;
5475;SDS011;2760;50.000;9.194;2022-12-18T11:01:04;45.00;;;18.10;;
5475;SDS011;2760;50.000;9.194;2022-12-18T11:03:34;36.03;;;14.60;;
5475;SDS011;2760;50.000;9.194;2022-12-18T11:06:05;51.83;;;17.57;;
5475;SDS011;2760;50.000;9.194;2022-12-18T11:08:36;39.13;;;17.57;;
5475;SDS011;2760;50.000;9.194;2022-12-18T11:11:03;57.17;;;22.50;;
5475;SDS011;2760;50.000;9.194;2022-12-18T11:13:41;39.30;;;19.67;;
5475;SDS011;2760;50.000;9.194;2022-12-18T11:16:20;48.17;;;18.80;;
5475;SDS011;2760;50.000;9.194;2022-12-18T11:18:48;41.73;;;18.80;;
5475;SDS011;2760;50.000;9.194;2022-12-18T11:21:16;46.87;;;19.43;;
5475;SDS011;2760;50.000;9.194;2022-12-18T11:23:46;46.83;;;20.17;;
5475;SDS011;2760;50.000;9.194;2022-12-18T11:26:15;48.57;;;21.17;;
5475;SDS011;2760;50.000;9.194;2022-12-18T11:28:43;41.47;;;19.47;;
5475;SDS011;2760;50.000;9.194;2022-12-18T11:31:23;44.30;;;20.33;;
5475;SDS011;2760;50.000;9.194;2022-12-18T11:33:56;43.37;;;19.03;;
5475;SDS011;2760;50.000;9.194;2022-12-18T11:36:28;40.93;;;18.87;;
5475;SDS011;2760;50.000;9.194;2022-12-18T11:39:00;34.23;;;16.53;;
5475;SDS011;2760;50.000;9.194;2022-12-18T11:41:38;48.80;;;18.93;;
5475;SDS011;2760;50.000;9.194;2022-12-18T11:44:28;51.37;;;19.90;;
5475;SDS011;2760;50.000;9.194;2022-12-18T11:47:01;44.27;;;20.30;;
5475;SDS011;2760;50.000;9.194;2022-12-18T11:49:35;42.43;;;20.37;;
5475;SDS011;2760;50.000;9.194;2022-12-18T11:52:04;41.90;;;16.57;;
5475;SDS011;2760;50.000;9.194;2022-12-18T11:54:41;44.87;;;19.23;;
5475;SDS011;2760;50.000;9.194;2022-12-18T11:57:11;43.90;;;19.37;;
5475;SDS011;2760;50.000;9.194;2022-12-18T11:59:49;55.10;;;19.83;;
5475;SDS011;2760;50.000;9.194;2022-12-18T12:02:26;39.10;;;17.60;;
5475;SDS011;2760;50.000;9.194;2022-12-18T12:05:15;42.30;;;17.23;;
5475;SDS011;2760;50.000;9.194;2022-12-18T12:07:56;47.53;;;18.80;;
5475;SDS011;2760;50.000;9.194;2022-12-18T12:10:31;53.77;;;21.30;;
5475;SDS011;2760;50.000;9.194;2022-12-18T12:16:10;51.23;;;20.30;;
5475;SDS011;2760;50.000;9.194;2022-12-18T12:18:47;34.00;;;13.60;;
5475;SDS011;2760;50.000;9.194;2022-12-18T12:21:28;50.70;;;21.70;;
5475;SDS011;2760;50.000;9.194;2022-12-18T12:24:01;56.07;;;20.93;;
5475;SDS011;2760;50.000;9.194;2022-12-18T12:26:42;46.17;;;21.07;;
5475;SDS011;2760;50.000;9.194;2022-12-18T12:29:23;48.80;;;18.53;;
5475;SDS011;2760;50.000;9.194;2022-12-18T12:32:01;42.67;;;18.67;;
5475;SDS011;2760;50.000;9.194;2022-12-18T12:34:38;48.23;;;21.67;;
5475;SDS011;2760;50.000;9.194;2022-12-18T12:37:20;41.73;;;18.77;;
5475;SDS011;2760;50.000;9.194;2022-12-18T12:39:56;46.43;;;20.40;;
5475;SDS011;2760;50.000;9.194;2022-12-18T12:42:29;57.97;;;22.80;;
5475;SDS011;2760;50.000;9.194;2022-12-18T12:45:18;44.60;;;18.87;;
5475;SDS011;2760;50.000;9.194;2022-12-18T12:47:52;52.27;;;21.63;;
5475;SDS011;2760;50.000;9.194;2022-12-18T12:50:22;44.60;;;20.60;;
5475;SDS011;2760;50.000;9.194;2022-12-18T12:52:50;51.20;;;22.60;;
5475;SDS011;2760;50.000;9.194;2022-12-18T12:55:20;51.37;;;21.57;;
5475;SDS011;2760;50.000;9.194;2022-12-18T12:57:55;54.73;;;23.17;;
5475;SDS011;2760;50.000;9.194;2022-12-18T13:00:30;51.53;;;21.93;;
5475;SDS011;2760;50.000;9.194;2022-12-18T13:03:06;50.53;;;20.43;;
5475;SDS011;2760;50.000;9.194;2022-12-18T13:05:39;47.07;;;21.43;;
5475;SDS011;2760;50.000;9.194;2022-12-18T13:08:21;44.80;;;19.27;;
5475;SDS011;2760;50.000;9.194;2022-12-18T13:10:52;44.23;;;20.20;;
5475;SDS011;2760;50.000;9.194;2022-12-18T13:13:52;46.10;;;20.03;;
5475;SDS011;2760;50.000;9.194;2022-12-18T13:16:21;53.53;;;20.90;;
5475;SDS011;2760;50.000;9.194;2022-12-18T13:18:49;43.20;;;21.73;;
5475;SDS011;2760;50.000;9.194;2022-12-18T13:21:20;48.13;;;19.97;;
5475;SDS011;2760;50.000;9.194;2022-12-18T13:23:52;54.10;;;21.00;;
5475;SDS011;2760;50.000;9.194;2022-12-18T13:26:29;35.73;;;16.73;;
5475;SDS011;2760;50.000;9.194;2022-12-18T13:29:14;44.67;;;20.13;;
5475;SDS011;2760;50.000;9.194;2022-12-18T13:32:19;48.07;;;19.60;;
5475;SDS011;2760;50.000;9.194;2022-12-18T13:34:47;49.00;;;21.40;;
5475;SDS011;2760;50.000;9.194;2022-12-18T13:43:36;51.50;;;20.00;;
5475;SDS011;2760;50.000;9.194;2022-12-18T13:46:20;53.40;;;19.60;;
5475;SDS011;2760;50.000;9.194;2022-12-18T13:48:55;49.30;;;20.33;;
5475;SDS011;2760;50.000;9.194;2022-12-18T13:51:25;51.47;;;21.13;;
5475;SDS011;2760;50.000;9.194;2022-12-18T13:53:54;48.40;;;22.67;;
5475;SDS011;2760;50.000;9.194;2022-12-18T13:56:24;45.43;;;19.97;;
5475;SDS011;2760;50.000;9.194;2022-12-18T14:02:00;44.20;;;19.60;;
5475;SDS011;2760;50.000;9.194;2022-12-18T14:04:36;44.27;;;19.03;;
5475;SDS011;2760;50.000;9.194;2022-12-18T14:07:03;42.43;;;21.00;;
5475;SDS011;2760;50.000;9.194;2022-12-18T14:09:34;42.70;;;19.30;;
5475;SDS011;2760;50.000;9.194;2022-12-18T14:12:03;48.60;;;20.97;;
5475;SDS011;2760;50.000;9.194;2022-12-18T14:14:49;47.17;;;20.50;;
5475;SDS011;2760;50.000;9.194;2022-12-18T14:17:19;54.73;;;25.53;;
5475;SDS011;2760;50.000;9.194;2022-12-18T14:19:47;82.47;;;40.33;;
5475;SDS011;2760;50.000;9.194;2022-12-18T14:22:17;48.87;;;21.70;;
5475;SDS011;2760;50.000;9.194;2022-12-18T14:24:45;51.53;;;18.90;;
5475;SDS011;2760;50.000;9.194;2022-12-18T14:27:23;50.00;;;21.20;;
5475;SDS011;2760;50.000;9.194;2022-12-18T14:29:51;49.17;;;20.57;;
5475;SDS011;2760;50.000;9.194;2022-12-18T14:32:20;40.60;;;19.20;;
5475;SDS011;2760;50.000;9.194;2022-12-18T14:34:50;58.20;;;23.37;;
5475;SDS011;2760;50.000;9.194;2022-12-18T14:37:20;52.63;;;23.90;;
5475;SDS011;2760;50.000;9.194;2022-12-18T14:39:52;61.23;;;26.20;;
5475;SDS011;2760;50.000;9.194;2022-12-18T14:42:20;51.40;;;24.37;;
5475;SDS011;2760;50.000;9.194;2022-12-18T14:44:47;48.93;;;23.60;;
5475;SDS011;2760;50.000;9.194;2022-12-18T14:47:14;60.13;;;24.23;;
5475;SDS011;2760;50.000;9.194;2022-12-18T14:49:43;52.00;;;22.27;;
5475;SDS011;2760;50.000;9.194;2022-12-18T14:52:18;55.60;;;21.90;;
5475;SDS011;2760;50.000;9.194;2022-12-18T14:54:53;53.30;;;22.43;;
5475;SDS011;2760;50.000;9.194;2022-12-18T14:57:21;61.20;;;20.93;;
5475;SDS011;2760;50.000;9.194;2022-12-18T14:59:51;46.10;;;19.37;;
5475;SDS011;2760;50.000;9.194;2022-12-18T15:02:19;51.40;;;21.73;;
5475;SDS011;2760;50.000;9.194;2022-12-18T15:05:00;49.83;;;23.47;;
5475;SDS011;2760;50.000;9.194;2022-12-18T15:07:39;46.03;;;21.83;;
5475;SDS011;2760;50.000;9.194;2022-12-18T15:10:10;49.93;;;20.07;;
5475;SDS011;2760;50.000;9.194;2022-12-18T15:12:38;49.40;;;20.13;;
5475;SDS011;2760;50.000;9.194;2022-12-18T15:18:11;51.63;;;20.27;;
5475;SDS011;2760;50.000;9.194;2022-12-18T15:20:44;46.30;;;18.40;;
5475;SDS011;2760;50.000;9.194;2022-12-18T15:23:17;48.73;;;20.77;;
5475;SDS011;2760;50.000;9.194;2022-12-18T15:25:46;39.73;;;17.13;;
5475;SDS011;2760;50.000;9.194;2022-12-18T15:28:19;47.80;;;21.30;;
5475;SDS011;2760;50.000;9.194;2022-12-18T15:31:03;44.13;;;19.60;;
5475;SDS011;2760;50.000;9.194;2022-12-18T15:33:33;54.93;;;23.30;;